sensor_id;sensor_type;location;lat;lon;timestamp;pressure;altitude;pressure_sealevel;temperature;humidity
77147;BME280;66121;52.584;9.694;2023-07-31T00:00:11;100556.94;;;15.51;100.00
77147;BME280;66121;52.584;9.694;2023-07-31T00:02:56;100545.88;;;15.48;100.00
77147;BME280;66121;52.584;9.694;2023-07-31T00:05:42;100539.53;;;15.47;100.00
77147;BME280;66121;52.584;9.694;2023-07-31T00:08:28;100542.75;;;15.42;100.00
77147;BME280;66121;52.584;9.694;2023-07-31T00:11:13;100553.00;;;15.48;100.00
77147;BME280;66121;52.584;9.694;2023-07-31T00:13:59;100535.94;;;15.46;100.00
77147;BME280;66121;52.584;9.694;2023-07-31T00:16:44;100548.22;;;15.49;100.00
77147;BME280;66121;52.584;9.694;2023-07-31T00:19:30;100547.78;;;15.51;100.00
77147;BME280;66121;52.584;9.694;2023-07-31T00:22:16;100550.09;;;15.56;100.00
77147;BME280;66121;52.584;9.694;2023-07-31T00:25:01;100541.94;;;15.41;100.00
77147;BME280;66121;52.584;9.694;2023-07-31T00:27:47;100536.38;;;15.41;100.00
77147;BME280;66121;52.584;9.694;2023-07-31T00:30:33;100511.59;;;15.27;100.00
77147;BME280;66121;52.584;9.694;2023-07-31T00:33:18;100525.34;;;15.38;100.00
77147;BME280;66121;52.584;9.694;2023-07-31T00:36:04;100536.69;;;15.51;100.00
77147;BME280;66121;52.584;9.694;2023-07-31T00:38:50;100501.56;;;15.33;100.00
77147;BME280;66121;52.584;9.694;2023-07-31T00:41:35;100523.53;;;15.55;100.00
77147;BME280;66121;52.584;9.694;2023-07-31T00:44:21;100510.53;;;15.48;100.00
77147;BME280;66121;52.584;9.694;2023-07-31T00:47:06;100521.22;;;15.50;100.00
77147;BME280;66121;52.584;9.694;2023-07-31T00:49:52;100508.38;;;15.56;100.00
77147;BME280;66121;52.584;9.694;2023-07-31T00:52:38;100503.69;;;15.53;100.00
77147;BME280;66121;52.584;9.694;2023-07-31T00:55:23;100510.69;;;15.61;100.00
77147;BME280;66121;52.584;9.694;2023-07-31T00:58:09;100493.28;;;15.57;100.00
77147;BME280;66121;52.584;9.694;2023-07-31T01:00:55;100490.88;;;15.59;100.00
77147;BME280;66121;52.584;9.694;2023-07-31T01:03:41;100490.19;;;15.51;100.00
77147;BME280;66121;52.584;9.694;2023-07-31T01:09:36;100480.91;;;15.61;100.00
77147;BME280;66121;52.584;9.694;2023-07-31T01:12:27;100465.66;;;15.46;100.00
77147;BME280;66121;52.584;9.694;2023-07-31T01:15:13;100478.38;;;15.43;100.00
77147;BME280;66121;52.584;9.694;2023-07-31T01:18:00;100497.69;;;15.54;100.00
77147;BME280;66121;52.584;9.694;2023-07-31T01:21:06;100503.56;;;15.60;100.00
77147;BME280;66121;52.584;9.694;2023-07-31T01:27:04;100509.97;;;15.57;100.00
77147;BME280;66121;52.584;9.694;2023-07-31T01:29:56;100509.97;;;15.57;100.00
77147;BME280;66121;52.584;9.694;2023-07-31T01:32:47;100507.16;;;15.60;100.00
77147;BME280;66121;52.584;9.694;2023-07-31T01:35:34;100487.88;;;15.46;100.00
77147;BME280;66121;52.584;9.694;2023-07-31T01:38:21;100489.91;;;15.45;100.00
77147;BME280;66121;52.584;9.694;2023-07-31T01:41:07;100466.19;;;15.34;100.00
77147;BME280;66121;52.584;9.694;2023-07-31T01:43:53;100478.28;;;15.51;100.00
77147;BME280;66121;52.584;9.694;2023-07-31T01:46:38;100477.09;;;15.52;100.00
77147;BME280;66121;52.584;9.694;2023-07-31T01:49:24;100468.81;;;15.44;100.00
77147;BME280;66121;52.584;9.694;2023-07-31T01:52:09;100491.41;;;15.50;100.00
77147;BME280;66121;52.584;9.694;2023-07-31T01:54:56;100457.03;;;15.37;100.00
77147;BME280;66121;52.584;9.694;2023-07-31T01:57:42;100464.44;;;15.47;100.00
77147;BME280;66121;52.584;9.694;2023-07-31T02:00:28;100469.25;;;15.43;100.00
77147;BME280;66121;52.584;9.694;2023-07-31T02:03:13;100446.75;;;15.34;100.00
77147;BME280;66121;52.584;9.694;2023-07-31T02:05:59;100447.28;;;15.25;100.00
77147;BME280;66121;52.584;9.694;2023-07-31T02:08:44;100446.50;;;15.25;100.00
77147;BME280;66121;52.584;9.694;2023-07-31T02:11:30;100447.75;;;15.20;100.00
77147;BME280;66121;52.584;9.694;2023-07-31T02:14:16;100465.84;;;15.32;100.00
77147;BME280;66121;52.584;9.694;2023-07-31T02:17:01;100460.66;;;15.34;100.00
77147;BME280;66121;52.584;9.694;2023-07-31T02:19:47;100453.53;;;15.33;100.00
77147;BME280;66121;52.584;9.694;2023-07-31T02:22:33;100408.22;;;15.09;100.00
77147;BME280;66121;52.584;9.694;2023-07-31T02:25:19;100460.03;;;15.50;100.00
77147;BME280;66121;52.584;9.694;2023-07-31T02:28:04;100441.78;;;15.48;100.00
77147;BME280;66121;52.584;9.694;2023-07-31T02:30:50;100445.78;;;15.48;100.00
77147;BME280;66121;52.584;9.694;2023-07-31T02:33:37;100440.56;;;15.50;100.00
77147;BME280;66121;52.584;9.694;2023-07-31T02:36:23;100450.00;;;15.56;100.00
77147;BME280;66121;52.584;9.694;2023-07-31T02:39:08;100445.41;;;15.45;100.00
77147;BME280;66121;52.584;9.694;2023-07-31T02:41:54;100449.63;;;15.54;100.00
77147;BME280;66121;52.584;9.694;2023-07-31T02:44:39;100455.47;;;15.63;100.00
77147;BME280;66121;52.584;9.694;2023-07-31T02:47:25;100445.66;;;15.55;100.00
77147;BME280;66121;52.584;9.694;2023-07-31T02:50:11;100459.47;;;15.58;100.00
77147;BME280;66121;52.584;9.694;2023-07-31T02:52:56;100462.16;;;15.65;100.00
77147;BME280;66121;52.584;9.694;2023-07-31T02:55:42;100455.16;;;15.57;100.00
77147;BME280;66121;52.584;9.694;2023-07-31T02:58:27;100449.59;;;15.57;100.00
77147;BME280;66121;52.584;9.694;2023-07-31T03:01:13;100453.25;;;15.51;100.00
77147;BME280;66121;52.584;9.694;2023-07-31T03:03:59;100459.69;;;15.48;100.00
77147;BME280;66121;52.584;9.694;2023-07-31T03:06:45;100439.88;;;15.42;100.00
77147;BME280;66121;52.584;9.694;2023-07-31T03:09:30;100455.25;;;15.50;100.00
77147;BME280;66121;52.584;9.694;2023-07-31T03:12:16;100419.03;;;15.30;100.00
77147;BME280;66121;52.584;9.694;2023-07-31T03:15:02;100429.09;;;15.48;100.00
77147;BME280;66121;52.584;9.694;2023-07-31T03:17:48;100451.22;;;15.55;100.00
77147;BME280;66121;52.584;9.694;2023-07-31T03:20:33;100432.94;;;15.54;100.00
77147;BME280;66121;52.584;9.694;2023-07-31T03:23:19;100454.72;;;15.59;100.00
77147;BME280;66121;52.584;9.694;2023-07-31T03:26:07;100443.44;;;15.42;100.00
77147;BME280;66121;52.584;9.694;2023-07-31T03:28:52;100443.00;;;15.44;100.00
77147;BME280;66121;52.584;9.694;2023-07-31T03:31:38;100449.34;;;15.48;100.00
77147;BME280;66121;52.584;9.694;2023-07-31T03:34:24;100456.13;;;15.43;100.00
77147;BME280;66121;52.584;9.694;2023-07-31T03:37:09;100450.69;;;15.36;100.00
77147;BME280;66121;52.584;9.694;2023-07-31T03:39:55;100437.31;;;15.28;100.00
77147;BME280;66121;52.584;9.694;2023-07-31T03:42:40;100431.75;;;15.28;100.00
77147;BME280;66121;52.584;9.694;2023-07-31T03:45:26;100445.44;;;15.42;100.00
77147;BME280;66121;52.584;9.694;2023-07-31T03:48:14;100449.88;;;15.36;100.00
77147;BME280;66121;52.584;9.694;2023-07-31T03:50:59;100438.03;;;15.32;100.00
77147;BME280;66121;52.584;9.694;2023-07-31T03:53:45;100430.66;;;15.22;100.00
77147;BME280;66121;52.584;9.694;2023-07-31T03:56:31;100426.22;;;15.28;100.00
77147;BME280;66121;52.584;9.694;2023-07-31T03:59:16;100410.88;;;15.16;100.00
77147;BME280;66121;52.584;9.694;2023-07-31T04:02:02;100437.72;;;15.26;100.00
77147;BME280;66121;52.584;9.694;2023-07-31T04:04:48;100414.81;;;15.19;100.00
77147;BME280;66121;52.584;9.694;2023-07-31T04:07:33;100429.47;;;15.23;100.00
77147;BME280;66121;52.584;9.694;2023-07-31T04:10:19;100426.13;;;15.31;100.00
77147;BME280;66121;52.584;9.694;2023-07-31T04:13:04;100425.28;;;15.34;100.00
77147;BME280;66121;52.584;9.694;2023-07-31T04:15:50;100423.44;;;15.28;100.00
77147;BME280;66121;52.584;9.694;2023-07-31T04:18:37;100426.50;;;15.33;100.00
77147;BME280;66121;52.584;9.694;2023-07-31T04:21:23;100430.06;;;15.34;100.00
77147;BME280;66121;52.584;9.694;2023-07-31T04:24:09;100420.53;;;15.35;100.00
77147;BME280;66121;52.584;9.694;2023-07-31T04:26:55;100413.25;;;15.18;100.00
77147;BME280;66121;52.584;9.694;2023-07-31T04:29:41;100427.03;;;15.25;100.00
77147;BME280;66121;52.584;9.694;2023-07-31T04:32:28;100418.28;;;15.26;100.00
77147;BME280;66121;52.584;9.694;2023-07-31T04:35:15;100405.44;;;15.09;100.00
77147;BME280;66121;52.584;9.694;2023-07-31T04:38:00;100428.59;;;15.26;100.00
77147;BME280;66121;52.584;9.694;2023-07-31T04:40:46;100431.34;;;15.29;100.00
77147;BME280;66121;52.584;9.694;2023-07-31T04:43:32;100422.09;;;15.09;100.00
77147;BME280;66121;52.584;9.694;2023-07-31T04:46:18;100418.19;;;15.07;100.00
77147;BME280;66121;52.584;9.694;2023-07-31T04:49:04;100418.59;;;15.05;100.00
77147;BME280;66121;52.584;9.694;2023-07-31T04:51:49;100432.75;;;15.14;100.00
77147;BME280;66121;52.584;9.694;2023-07-31T04:54:35;100415.75;;;15.09;100.00
77147;BME280;66121;52.584;9.694;2023-07-31T04:57:21;100418.84;;;15.14;100.00
77147;BME280;66121;52.584;9.694;2023-07-31T05:00:07;100414.97;;;15.08;100.00
77147;BME280;66121;52.584;9.694;2023-07-31T05:02:52;100392.84;;;15.01;100.00
77147;BME280;66121;52.584;9.694;2023-07-31T05:05:38;100414.50;;;15.13;100.00
77147;BME280;66121;52.584;9.694;2023-07-31T05:08:24;100432.13;;;15.30;100.00
77147;BME280;66121;52.584;9.694;2023-07-31T05:11:09;100421.47;;;15.25;100.00
77147;BME280;66121;52.584;9.694;2023-07-31T05:13:55;100408.47;;;15.18;100.00
77147;BME280;66121;52.584;9.694;2023-07-31T05:16:41;100423.34;;;15.31;100.00
77147;BME280;66121;52.584;9.694;2023-07-31T05:19:26;100408.47;;;15.18;100.00
77147;BME280;66121;52.584;9.694;2023-07-31T05:22:12;100404.44;;;15.23;100.00
77147;BME280;66121;52.584;9.694;2023-07-31T05:24:58;100390.91;;;15.25;100.00
77147;BME280;66121;52.584;9.694;2023-07-31T05:27:43;100360.66;;;15.04;100.00
77147;BME280;66121;52.584;9.694;2023-07-31T05:30:32;100382.69;;;15.18;100.00
77147;BME280;66121;52.584;9.694;2023-07-31T05:33:18;100390.47;;;15.26;100.00
77147;BME280;66121;52.584;9.694;2023-07-31T05:36:03;100399.78;;;15.39;100.00
77147;BME280;66121;52.584;9.694;2023-07-31T05:38:49;100389.09;;;15.38;100.00
77147;BME280;66121;52.584;9.694;2023-07-31T05:41:35;100378.50;;;15.29;100.00
77147;BME280;66121;52.584;9.694;2023-07-31T05:44:21;100390.31;;;15.37;100.00
77147;BME280;66121;52.584;9.694;2023-07-31T05:47:06;100391.94;;;15.34;100.00
77147;BME280;66121;52.584;9.694;2023-07-31T05:49:52;100384.38;;;15.35;100.00
77147;BME280;66121;52.584;9.694;2023-07-31T05:52:38;100383.91;;;15.40;100.00
77147;BME280;66121;52.584;9.694;2023-07-31T05:55:24;100390.91;;;15.25;100.00
77147;BME280;66121;52.584;9.694;2023-07-31T05:58:12;100389.19;;;15.31;100.00
77147;BME280;66121;52.584;9.694;2023-07-31T06:00:57;100393.78;;;15.41;100.00
77147;BME280;66121;52.584;9.694;2023-07-31T06:03:43;100390.97;;;15.44;100.00
77147;BME280;66121;52.584;9.694;2023-07-31T06:06:29;100364.09;;;15.38;100.00
77147;BME280;66121;52.584;9.694;2023-07-31T06:09:14;100377.88;;;15.45;100.00
77147;BME280;66121;52.584;9.694;2023-07-31T06:12:00;100356.22;;;15.33;100.00
77147;BME280;66121;52.584;9.694;2023-07-31T06:14:46;100374.28;;;15.48;100.00
77147;BME280;66121;52.584;9.694;2023-07-31T06:17:31;100364.69;;;15.49;100.00
77147;BME280;66121;52.584;9.694;2023-07-31T06:20:17;100367.00;;;15.54;100.00
77147;BME280;66121;52.584;9.694;2023-07-31T06:23:02;100364.56;;;15.56;100.00
77147;BME280;66121;52.584;9.694;2023-07-31T06:25:49;100357.72;;;15.61;100.00
77147;BME280;66121;52.584;9.694;2023-07-31T06:28:34;100372.28;;;15.68;100.00
77147;BME280;66121;52.584;9.694;2023-07-31T06:31:20;100378.28;;;15.67;100.00
77147;BME280;66121;52.584;9.694;2023-07-31T06:34:08;100341.97;;;15.54;100.00
77147;BME280;66121;52.584;9.694;2023-07-31T06:36:53;100363.19;;;15.68;100.00
77147;BME280;66121;52.584;9.694;2023-07-31T06:39:39;100351.69;;;15.66;100.00
77147;BME280;66121;52.584;9.694;2023-07-31T06:42:25;100350.13;;;15.65;100.00
77147;BME280;66121;52.584;9.694;2023-07-31T06:45:11;100349.03;;;15.59;100.00
77147;BME280;66121;52.584;9.694;2023-07-31T06:47:57;100351.75;;;15.62;100.00
77147;BME280;66121;52.584;9.694;2023-07-31T06:50:46;100347.19;;;15.72;100.00
77147;BME280;66121;52.584;9.694;2023-07-31T06:53:32;100359.13;;;15.72;100.00
77147;BME280;66121;52.584;9.694;2023-07-31T06:56:18;100361.97;;;15.69;100.00
77147;BME280;66121;52.584;9.694;2023-07-31T06:59:03;100352.16;;;15.61;100.00
77147;BME280;66121;52.584;9.694;2023-07-31T07:01:49;100357.72;;;15.61;100.00
77147;BME280;66121;52.584;9.694;2023-07-31T07:04:34;100325.53;;;15.40;100.00
77147;BME280;66121;52.584;9.694;2023-07-31T07:07:20;100353.69;;;15.65;100.00
77147;BME280;66121;52.584;9.694;2023-07-31T07:10:06;100344.13;;;15.66;100.00
77147;BME280;66121;52.584;9.694;2023-07-31T07:12:52;100366.13;;;15.80;100.00
77147;BME280;66121;52.584;9.694;2023-07-31T07:15:38;100362.56;;;15.80;100.00
77147;BME280;66121;52.584;9.694;2023-07-31T07:18:24;100355.91;;;15.74;100.00
77147;BME280;66121;52.584;9.694;2023-07-31T07:21:09;100360.25;;;15.75;100.00
77147;BME280;66121;52.584;9.694;2023-07-31T07:23:59;100383.97;;;15.83;100.00
77147;BME280;66121;52.584;9.694;2023-07-31T07:26:45;100368.31;;;15.69;100.00
77147;BME280;66121;52.584;9.694;2023-07-31T07:29:31;100374.38;;;15.84;100.00
77147;BME280;66121;52.584;9.694;2023-07-31T07:32:16;100370.56;;;15.97;100.00
77147;BME280;66121;52.584;9.694;2023-07-31T07:35:04;100363.13;;;15.91;100.00
77147;BME280;66121;52.584;9.694;2023-07-31T07:37:49;100372.47;;;16.00;100.00
77147;BME280;66121;52.584;9.694;2023-07-31T07:40:39;100388.75;;;16.22;100.00
77147;BME280;66121;52.584;9.694;2023-07-31T07:43:25;100380.91;;;16.36;100.00
77147;BME280;66121;52.584;9.694;2023-07-31T07:46:10;100388.47;;;16.55;100.00
77147;BME280;66121;52.584;9.694;2023-07-31T07:48:56;100379.59;;;16.60;100.00
77147;BME280;66121;52.584;9.694;2023-07-31T07:51:42;100384.31;;;16.63;100.00
77147;BME280;66121;52.584;9.694;2023-07-31T07:54:27;100375.00;;;16.50;100.00
77147;BME280;66121;52.584;9.694;2023-07-31T07:57:13;100380.47;;;16.38;100.00
77147;BME280;66121;52.584;9.694;2023-07-31T07:59:58;100378.41;;;16.42;100.00
77147;BME280;66121;52.584;9.694;2023-07-31T08:02:44;100380.50;;;16.57;100.00
77147;BME280;66121;52.584;9.694;2023-07-31T08:05:30;100383.00;;;16.68;100.00
77147;BME280;66121;52.584;9.694;2023-07-31T08:08:19;100379.19;;;16.62;100.00
77147;BME280;66121;52.584;9.694;2023-07-31T08:11:05;100381.66;;;16.76;100.00
77147;BME280;66121;52.584;9.694;2023-07-31T08:13:51;100369.28;;;16.77;100.00
77147;BME280;66121;52.584;9.694;2023-07-31T08:16:38;100387.44;;;17.33;100.00
77147;BME280;66121;52.584;9.694;2023-07-31T08:19:24;100373.00;;;17.55;100.00
77147;BME280;66121;52.584;9.694;2023-07-31T08:22:09;100382.13;;;17.55;100.00
77147;BME280;66121;52.584;9.694;2023-07-31T08:24:55;100378.13;;;17.56;100.00
77147;BME280;66121;52.584;9.694;2023-07-31T08:27:44;100372.78;;;17.78;100.00
77147;BME280;66121;52.584;9.694;2023-07-31T08:30:29;100369.38;;;17.86;100.00
77147;BME280;66121;52.584;9.694;2023-07-31T08:33:15;100371.09;;;17.80;100.00
77147;BME280;66121;52.584;9.694;2023-07-31T08:36:01;100369.84;;;18.26;100.00
77147;BME280;66121;52.584;9.694;2023-07-31T08:38:47;100366.91;;;18.30;100.00
77147;BME280;66121;52.584;9.694;2023-07-31T08:41:42;100320.72;;;17.71;100.00
77147;BME280;66121;52.584;9.694;2023-07-31T08:44:29;100364.88;;;18.18;100.00
77147;BME280;66121;52.584;9.694;2023-07-31T08:47:16;100362.09;;;18.18;100.00
77147;BME280;66121;52.584;9.694;2023-07-31T08:50:02;100363.63;;;18.06;100.00
77147;BME280;66121;52.584;9.694;2023-07-31T08:52:49;100357.16;;;18.09;100.00
77147;BME280;66121;52.584;9.694;2023-07-31T08:55:37;100344.63;;;18.01;100.00
77147;BME280;66121;52.584;9.694;2023-07-31T08:58:23;100342.66;;;17.85;100.00
77147;BME280;66121;52.584;9.694;2023-07-31T09:01:09;100346.03;;;17.93;100.00
77147;BME280;66121;52.584;9.694;2023-07-31T09:03:57;100332.50;;;17.79;100.00
77147;BME280;66121;52.584;9.694;2023-07-31T09:06:44;100345.63;;;17.94;100.00
77147;BME280;66121;52.584;9.694;2023-07-31T09:09:33;100352.19;;;18.29;100.00
77147;BME280;66121;52.584;9.694;2023-07-31T09:12:19;100328.25;;;18.16;100.00
77147;BME280;66121;52.584;9.694;2023-07-31T09:15:06;100321.25;;;17.95;100.00
77147;BME280;66121;52.584;9.694;2023-07-31T09:18:01;100332.34;;;17.98;100.00
77147;BME280;66121;52.584;9.694;2023-07-31T09:21:03;100313.69;;;18.08;100.00
77147;BME280;66121;52.584;9.694;2023-07-31T09:23:49;100319.78;;;18.32;100.00
77147;BME280;66121;52.584;9.694;2023-07-31T09:26:36;100324.63;;;18.44;100.00
77147;BME280;66121;52.584;9.694;2023-07-31T09:29:22;100313.25;;;18.51;100.00
77147;BME280;66121;52.584;9.694;2023-07-31T09:32:16;100314.13;;;18.60;100.00
77147;BME280;66121;52.584;9.694;2023-07-31T09:35:13;100313.88;;;18.42;100.00
77147;BME280;66121;52.584;9.694;2023-07-31T09:38:07;100301.34;;;18.22;100.00
77147;BME280;66121;52.584;9.694;2023-07-31T09:40:53;100298.09;;;18.23;100.00
77147;BME280;66121;52.584;9.694;2023-07-31T09:43:38;100294.19;;;18.21;100.00
77147;BME280;66121;52.584;9.694;2023-07-31T09:46:26;100305.81;;;18.32;100.00
77147;BME280;66121;52.584;9.694;2023-07-31T09:49:13;100301.41;;;18.06;100.00
77147;BME280;66121;52.584;9.694;2023-07-31T09:51:59;100307.44;;;18.04;100.00
77147;BME280;66121;52.584;9.694;2023-07-31T09:54:45;100299.41;;;18.06;100.00
77147;BME280;66121;52.584;9.694;2023-07-31T09:57:31;100306.19;;;18.05;100.00
77147;BME280;66121;52.584;9.694;2023-07-31T10:00:18;100294.25;;;17.92;100.00
77147;BME280;66121;52.584;9.694;2023-07-31T10:03:06;100304.13;;;17.80;100.00
77147;BME280;66121;52.584;9.694;2023-07-31T10:05:55;100304.06;;;17.68;100.00
77147;BME280;66121;52.584;9.694;2023-07-31T10:08:42;100289.56;;;17.44;100.00
77147;BME280;66121;52.584;9.694;2023-07-31T10:11:29;100298.94;;;17.50;100.00
77147;BME280;66121;52.584;9.694;2023-07-31T10:14:20;100289.44;;;17.64;100.00
77147;BME280;66121;52.584;9.694;2023-07-31T10:17:07;100291.50;;;17.76;100.00
77147;BME280;66121;52.584;9.694;2023-07-31T10:19:53;100293.91;;;18.02;100.00
77147;BME280;66121;52.584;9.694;2023-07-31T10:22:39;100280.50;;;17.97;100.00
77147;BME280;66121;52.584;9.694;2023-07-31T10:25:26;100289.72;;;18.23;100.00
77147;BME280;66121;52.584;9.694;2023-07-31T10:28:12;100278.09;;;18.37;100.00
77147;BME280;66121;52.584;9.694;2023-07-31T10:30:58;100294.34;;;18.55;100.00
77147;BME280;66121;52.584;9.694;2023-07-31T10:33:44;100273.22;;;18.41;100.00
77147;BME280;66121;52.584;9.694;2023-07-31T10:36:30;100265.75;;;18.51;100.00
77147;BME280;66121;52.584;9.694;2023-07-31T10:39:36;100278.59;;;18.74;100.00
77147;BME280;66121;52.584;9.694;2023-07-31T10:42:44;100284.38;;;19.04;100.00
77147;BME280;66121;52.584;9.694;2023-07-31T10:45:40;100271.03;;;19.08;100.00
77147;BME280;66121;52.584;9.694;2023-07-31T10:48:33;100266.22;;;19.21;100.00
77147;BME280;66121;52.584;9.694;2023-07-31T10:51:20;100262.88;;;19.14;100.00
77147;BME280;66121;52.584;9.694;2023-07-31T10:54:15;100242.00;;;18.81;100.00
77147;BME280;66121;52.584;9.694;2023-07-31T10:57:18;100217.47;;;18.50;100.00
77147;BME280;66121;52.584;9.694;2023-07-31T11:00:22;100238.25;;;18.62;100.00
77147;BME280;66121;52.584;9.694;2023-07-31T11:03:15;100233.97;;;18.32;100.00
77147;BME280;66121;52.584;9.694;2023-07-31T11:06:04;100246.63;;;18.37;100.00
77147;BME280;66121;52.584;9.694;2023-07-31T11:08:50;100231.41;;;18.25;100.00
77147;BME280;66121;52.584;9.694;2023-07-31T11:11:36;100227.06;;;18.24;100.00
77147;BME280;66121;52.584;9.694;2023-07-31T11:14:22;100240.91;;;18.40;100.00
77147;BME280;66121;52.584;9.694;2023-07-31T11:17:08;100232.84;;;18.30;100.00
77147;BME280;66121;52.584;9.694;2023-07-31T11:19:53;100238.09;;;18.40;100.00
77147;BME280;66121;52.584;9.694;2023-07-31T11:22:39;100225.38;;;18.39;100.00
77147;BME280;66121;52.584;9.694;2023-07-31T11:25:25;100220.72;;;18.49;100.00
77147;BME280;66121;52.584;9.694;2023-07-31T11:28:12;100231.97;;;18.71;100.00
77147;BME280;66121;52.584;9.694;2023-07-31T11:30:58;100238.59;;;18.64;100.00
77147;BME280;66121;52.584;9.694;2023-07-31T11:33:44;100228.53;;;18.67;100.00
77147;BME280;66121;52.584;9.694;2023-07-31T11:36:29;100208.16;;;18.66;97.80
77147;BME280;66121;52.584;9.694;2023-07-31T11:39:15;100229.06;;;18.74;98.13
77147;BME280;66121;52.584;9.694;2023-07-31T11:42:01;100212.31;;;18.74;99.87
77147;BME280;66121;52.584;9.694;2023-07-31T11:44:47;100216.22;;;18.64;98.75
77147;BME280;66121;52.584;9.694;2023-07-31T11:47:34;100210.97;;;18.66;98.54
77147;BME280;66121;52.584;9.694;2023-07-31T11:50:20;100200.38;;;18.48;100.00
77147;BME280;66121;52.584;9.694;2023-07-31T11:53:07;100218.72;;;18.49;100.00
77147;BME280;66121;52.584;9.694;2023-07-31T11:55:54;100217.91;;;18.36;100.00
77147;BME280;66121;52.584;9.694;2023-07-31T11:58:42;100203.44;;;18.00;100.00
77147;BME280;66121;52.584;9.694;2023-07-31T12:01:29;100203.31;;;17.78;100.00
77147;BME280;66121;52.584;9.694;2023-07-31T12:04:16;100203.63;;;17.68;100.00
77147;BME280;66121;52.584;9.694;2023-07-31T12:07:01;100186.16;;;17.51;100.00
77147;BME280;66121;52.584;9.694;2023-07-31T12:09:54;100191.69;;;17.38;100.00
77147;BME280;66121;52.584;9.694;2023-07-31T12:12:40;100215.13;;;17.57;100.00
77147;BME280;66121;52.584;9.694;2023-07-31T12:15:33;100216.69;;;17.71;100.00
77147;BME280;66121;52.584;9.694;2023-07-31T12:18:19;100199.94;;;17.71;100.00
77147;BME280;66121;52.584;9.694;2023-07-31T12:21:07;100202.97;;;17.76;100.00
77147;BME280;66121;52.584;9.694;2023-07-31T12:23:53;100196.34;;;17.58;100.00
77147;BME280;66121;52.584;9.694;2023-07-31T12:26:39;100208.63;;;17.60;100.00
77147;BME280;66121;52.584;9.694;2023-07-31T12:29:34;100212.91;;;17.65;100.00
77147;BME280;66121;52.584;9.694;2023-07-31T12:32:22;100204.56;;;17.77;100.00
77147;BME280;66121;52.584;9.694;2023-07-31T12:35:08;100201.31;;;17.79;100.00
77147;BME280;66121;52.584;9.694;2023-07-31T12:37:54;100177.97;;;17.85;100.00
77147;BME280;66121;52.584;9.694;2023-07-31T12:40:41;100201.22;;;18.20;100.00
77147;BME280;66121;52.584;9.694;2023-07-31T12:47:17;100147.75;;;18.09;100.00
77147;BME280;66121;52.584;9.694;2023-07-31T12:50:03;100183.13;;;18.37;100.00
77147;BME280;66121;52.584;9.694;2023-07-31T12:52:49;100193.88;;;18.39;100.00
77147;BME280;66121;52.584;9.694;2023-07-31T12:55:35;100151.88;;;18.17;100.00
77147;BME280;66121;52.584;9.694;2023-07-31T12:58:22;100193.53;;;18.37;100.00
77147;BME280;66121;52.584;9.694;2023-07-31T13:01:08;100176.47;;;18.10;100.00
77147;BME280;66121;52.584;9.694;2023-07-31T13:03:53;100188.28;;;18.14;100.00
77147;BME280;66121;52.584;9.694;2023-07-31T13:06:39;100184.84;;;18.22;100.00
77147;BME280;66121;52.584;9.694;2023-07-31T13:09:25;100180.00;;;18.23;100.00
77147;BME280;66121;52.584;9.694;2023-07-31T13:12:10;100165.63;;;18.12;100.00
77147;BME280;66121;52.584;9.694;2023-07-31T13:14:56;100177.13;;;18.14;100.00
77147;BME280;66121;52.584;9.694;2023-07-31T13:17:42;100173.88;;;18.15;100.00
77147;BME280;66121;52.584;9.694;2023-07-31T13:20:27;100183.50;;;18.14;100.00
77147;BME280;66121;52.584;9.694;2023-07-31T13:23:13;100168.41;;;17.86;100.00
77147;BME280;66121;52.584;9.694;2023-07-31T13:25:58;100198.00;;;17.96;100.00
77147;BME280;66121;52.584;9.694;2023-07-31T13:28:44;100193.31;;;18.06;100.00
77147;BME280;66121;52.584;9.694;2023-07-31T13:31:30;100184.59;;;18.17;100.00
77147;BME280;66121;52.584;9.694;2023-07-31T13:34:15;100172.88;;;17.96;100.00
77147;BME280;66121;52.584;9.694;2023-07-31T13:37:01;100196.44;;;18.08;100.00
77147;BME280;66121;52.584;9.694;2023-07-31T13:39:47;100191.06;;;18.01;100.00
77147;BME280;66121;52.584;9.694;2023-07-31T13:42:32;100191.53;;;17.99;100.00
77147;BME280;66121;52.584;9.694;2023-07-31T13:45:18;100186.59;;;18.03;100.00
77147;BME280;66121;52.584;9.694;2023-07-31T13:48:04;100182.03;;;18.10;100.00
77147;BME280;66121;52.584;9.694;2023-07-31T13:50:49;100136.81;;;17.89;100.00
77147;BME280;66121;52.584;9.694;2023-07-31T13:53:35;100188.50;;;18.32;100.00
77147;BME280;66121;52.584;9.694;2023-07-31T13:56:21;100185.16;;;18.37;100.00
77147;BME280;66121;52.584;9.694;2023-07-31T13:59:06;100187.94;;;18.37;100.00
77147;BME280;66121;52.584;9.694;2023-07-31T14:01:52;100149.28;;;18.23;100.00
77147;BME280;66121;52.584;9.694;2023-07-31T14:04:38;100163.16;;;18.26;100.00
77147;BME280;66121;52.584;9.694;2023-07-31T14:07:24;100140.59;;;18.21;100.00
77147;BME280;66121;52.584;9.694;2023-07-31T14:10:09;100160.94;;;18.46;100.00
77147;BME280;66121;52.584;9.694;2023-07-31T14:12:55;100165.81;;;18.55;100.00
77147;BME280;66121;52.584;9.694;2023-07-31T14:15:42;100150.53;;;18.47;100.00
77147;BME280;66121;52.584;9.694;2023-07-31T14:18:28;100160.34;;;18.39;100.00
77147;BME280;66121;52.584;9.694;2023-07-31T14:21:14;100114.34;;;18.18;100.00
77147;BME280;66121;52.584;9.694;2023-07-31T14:24:00;100163.00;;;18.42;100.00
77147;BME280;66121;52.584;9.694;2023-07-31T14:26:45;100153.50;;;18.40;100.00
77147;BME280;66121;52.584;9.694;2023-07-31T14:29:31;100170.28;;;18.40;100.00